createdAt,value
2022-09-21T00:00:18.827Z,25737.34
2022-09-21T00:01:24.886Z,25419.56
2022-09-21T00:02:27.127Z,27034.09
2022-09-21T00:03:29.618Z,26385.47
2022-09-21T00:04:31.717Z,25737.72
2022-09-21T00:05:34.756Z,25091.13
2022-09-21T00:06:37.362Z,26714.00
2022-09-21T00:07:39.465Z,28333.72
2022-09-21T00:08:42.723Z,26392.03
2022-09-21T00:09:44.939Z,28010.78
2022-09-21T00:10:50.209Z,27371.44
2022-09-21T00:11:56.365Z,30933.72
2022-09-21T00:13:02.942Z,28341.44
2022-09-21T00:14:10.388Z,27372.47
2022-09-21T00:15:12.616Z,28338.88
2022-09-21T00:16:16.733Z,28670.56
2022-09-21T00:17:18.864Z,29641.78
2022-09-21T00:18:21.441Z,30292.28
2022-09-21T00:19:23.635Z,32242.16
2022-09-21T00:20:27.835Z,33872.13
2022-09-21T00:21:30.458Z,35819.56
2022-09-21T00:22:33.433Z,35818.16
2022-09-21T00:23:36.640Z,35819.25
2022-09-21T00:24:38.976Z,36137.69
2022-09-21T00:25:41.140Z,36787.59
2022-09-21T00:26:43.235Z,37436.97
2022-09-21T00:27:47.786Z,39390.97
2022-09-21T00:29:08.230Z,39741.25
2022-09-21T00:30:11.478Z,43634.59
2022-09-21T00:31:15.846Z,43642.09
2022-09-21T00:32:18.001Z,43951.38
2022-09-21T00:33:20.087Z,43623.03
2022-09-21T00:34:22.215Z,41342.81
2022-09-21T00:35:24.337Z,39713.81
2022-09-21T00:36:28.213Z,37444.81
2022-09-21T00:37:30.856Z,37765.34
2022-09-21T00:38:33.912Z,35158.00
2022-09-21T00:39:36.015Z,33531.41
2022-09-21T00:40:38.122Z,32555.53
2022-09-21T00:41:40.438Z,31580.91
2022-09-21T00:42:42.635Z,32881.06
2022-09-21T00:44:09.157Z,27697.44
2022-09-21T00:45:21.136Z,30939.38
2022-09-21T00:46:30.097Z,31597.06
2022-09-21T00:47:35.342Z,33871.59
2022-09-21T00:48:37.571Z,34178.75
2022-09-21T00:49:42.992Z,34188.72
2022-09-21T00:50:53.853Z,33866.66
2022-09-21T00:51:58.672Z,38432.16
2022-09-21T00:53:00.838Z,43292.03
2022-09-21T00:54:09.627Z,42980.59
2022-09-21T00:55:16.040Z,46874.84
2022-09-21T00:56:18.141Z,48175.81
2022-09-21T00:57:23.684Z,47539.47
2022-09-21T00:58:30.478Z,47868.03
2022-09-21T00:59:36.713Z,49168.88
2022-09-21T01:00:40.350Z,50128.84
2022-09-21T01:01:43.047Z,46868.59
2022-09-21T01:02:46.032Z,44265.94
2022-09-21T01:03:50.801Z,37113.88
2022-09-21T01:04:55.016Z,36464.47
2022-09-21T01:05:57.213Z,36133.25
2022-09-21T01:07:05.602Z,34196.63
2022-09-21T01:08:12.467Z,35498.53
2022-09-21T01:09:16.015Z,38418.47
2022-09-21T01:10:19.925Z,38096.16
2022-09-21T01:11:55.075Z,37454.06
2022-09-21T01:13:30.190Z,41684.16
2022-09-21T01:14:55.189Z,40705.94
2022-09-21T01:16:20.037Z,41355.38
2022-09-21T01:17:51.224Z,43956.88
2022-09-21T01:19:12.918Z,47880.41
2022-09-21T01:20:39.726Z,40706.59
2022-09-21T01:21:52.872Z,40377.63
2022-09-21T01:23:14.834Z,38099.13
2022-09-21T01:24:24.473Z,33542.75
2022-09-21T01:25:35.633Z,34200.56
2022-09-21T01:26:50.606Z,36476.00
2022-09-21T01:28:02.983Z,38100.28
2022-09-21T01:29:29.649Z,38758.16
2022-09-21T01:30:35.227Z,42981.94
2022-09-21T01:31:49.763Z,41032.41
2022-09-21T01:33:03.136Z,42009.44
2022-09-21T01:34:12.389Z,42980.59
2022-09-21T01:35:23.075Z,43311.31
2022-09-21T01:36:30.890Z,45914.53
2022-09-21T01:37:38.680Z,46560.38
2022-09-21T01:38:53.263Z,42648.00
2022-09-21T01:40:01.048Z,43617.22
2022-09-21T01:41:07.088Z,44588.38
2022-09-21T01:42:11.666Z,41978.66
2022-09-21T01:43:20.499Z,39703.66
2022-09-21T01:44:28.572Z,42958.47
2022-09-21T01:45:44.410Z,42638.03
2022-09-21T01:46:48.326Z,46854.25
2022-09-21T01:47:52.102Z,44245.53
2022-09-21T01:49:05.848Z,40021.41
2022-09-21T01:50:11.843Z,40017.03
2022-09-21T01:51:18.029Z,39368.06
2022-09-21T01:52:31.909Z,40670.50
2022-09-21T01:53:42.501Z,41324.81
2022-09-21T01:54:54.430Z,41323.19
2022-09-21T01:56:18.165Z,41004.34
2022-09-21T01:57:23.588Z,42625.41
2022-09-21T01:58:42.358Z,40026.38
2022-09-21T01:59:57.022Z,38403.28
2022-09-21T02:00:59.469Z,41640.03
2022-09-21T02:02:08.989Z,37750.16
2022-09-21T02:03:19.140Z,37429.16
2022-09-21T02:04:21.496Z,40991.56
2022-09-21T02:05:26.301Z,40029.50
2022-09-21T02:06:30.094Z,42301.72
2022-09-21T02:07:36.917Z,42635.72
2022-09-21T02:08:39.498Z,47175.81
2022-09-21T02:09:41.682Z,48473.81
2022-09-21T02:10:49.464Z,42624.41
2022-09-21T02:11:51.569Z,46186.03
2022-09-21T02:13:01.318Z,45547.34
2022-09-21T02:14:03.478Z,46509.69
2022-09-21T02:15:06.330Z,44234.81
2022-09-21T02:16:12.205Z,43253.19
2022-09-21T02:17:20.089Z,40672.41
2022-09-21T02:18:55.053Z,41645.88
2022-09-21T02:20:19.579Z,43606.34
2022-09-21T02:21:31.481Z,47180.25
2022-09-21T02:22:42.721Z,48484.13
2022-09-21T02:24:03.106Z,48482.59
2022-09-21T02:25:15.744Z,45879.28
2022-09-21T02:26:27.182Z,44898.50
2022-09-21T02:27:55.802Z,44259.00
2022-09-21T02:29:43.027Z,46212.47
2022-09-21T02:30:53.570Z,49137.56
2022-09-21T02:32:05.161Z,49786.06
2022-09-21T02:33:17.782Z,46853.50
2022-09-21T02:34:38.070Z,45226.09
2022-09-21T02:35:55.430Z,45870.66
2022-09-21T02:37:10.308Z,44243.09
2022-09-21T02:38:17.854Z,42938.38
2022-09-21T02:39:32.599Z,43259.94
2022-09-21T02:40:44.825Z,41310.97
2022-09-21T02:41:56.887Z,43910.53
2022-09-21T02:43:33.711Z,47170.63
2022-09-21T02:44:42.585Z,47815.03
2022-09-21T02:45:51.992Z,47809.78
2022-09-21T02:46:59.200Z,50085.41
2022-09-21T02:48:07.883Z,50742.38
2022-09-21T02:49:17.000Z,52044.66
2022-09-21T02:50:26.900Z,48457.81
2022-09-21T02:51:32.792Z,47474.19
2022-09-21T02:52:39.026Z,46813.81
2022-09-21T02:53:43.337Z,45192.81
2022-09-21T02:54:50.884Z,43242.38
2022-09-21T02:55:56.689Z,44217.50
2022-09-21T02:57:00.499Z,45512.72
2022-09-21T02:58:06.877Z,43566.47
2022-09-21T02:59:10.126Z,43554.22
2022-09-21T03:00:12.793Z,43555.59
2022-09-21T03:01:16.215Z,42912.22
2022-09-21T03:02:18.430Z,42907.19
2022-09-21T03:03:23.244Z,41946.28
2022-09-21T03:04:27.842Z,45194.22
2022-09-21T03:05:30.085Z,45835.81
2022-09-21T03:06:32.749Z,46159.59
2022-09-21T03:07:34.915Z,47134.31
2022-09-21T03:08:37.165Z,47782.72
2022-09-21T03:09:39.464Z,47129.53
2022-09-21T03:10:41.841Z,49735.88
2022-09-21T03:11:43.962Z,51361.88
2022-09-21T03:12:46.834Z,48428.88
2022-09-21T03:13:48.953Z,43549.47
2022-09-21T03:14:51.330Z,41601.44
2022-09-21T03:16:03.186Z,38371.75
2022-09-21T03:17:05.336Z,41605.66
2022-09-21T03:18:09.560Z,39665.09
2022-09-21T03:19:14.998Z,41281.38
2022-09-21T03:20:17.093Z,43557.28
2022-09-21T03:21:19.182Z,44531.91
2022-09-21T03:22:22.621Z,44214.72
2022-09-21T03:23:25.179Z,46158.53
2022-09-21T03:24:45.588Z,45180.06
2022-09-21T03:25:47.763Z,43884.44
2022-09-21T03:26:50.020Z,38682.19
2022-09-21T03:27:54.957Z,36733.91
2022-09-21T03:28:57.153Z,35759.91
2022-09-21T03:30:02.191Z,36409.59
2022-09-21T03:31:06.556Z,36733.31
2022-09-21T03:32:08.836Z,26027.34
2022-09-21T03:33:12.865Z,24738.44
2022-09-21T03:34:15.059Z,25061.69
2022-09-21T03:35:18.426Z,24418.66
2022-09-21T03:36:20.980Z,26687.88
2022-09-21T03:37:23.101Z,27334.69
2022-09-21T03:38:26.553Z,30255.66
2022-09-21T03:39:29.358Z,35124.69
2022-09-21T03:40:32.531Z,39346.66
2022-09-21T03:41:34.909Z,35768.22
2022-09-21T03:42:37.018Z,37391.81
2022-09-21T03:43:39.139Z,39339.63
2022-09-21T03:44:41.441Z,41612.78
2022-09-21T03:45:44.186Z,44217.50
2022-09-21T03:46:46.306Z,46814.56
2022-09-21T03:47:48.766Z,46810.88
2022-09-21T03:48:50.869Z,47137.28
2022-09-21T03:49:54.076Z,47136.19
2022-09-21T03:50:57.072Z,46485.59
2022-09-21T03:51:59.537Z,45507.72
2022-09-21T03:53:01.677Z,44858.78
2022-09-21T03:54:04.661Z,44859.50
2022-09-21T03:55:08.729Z,43569.88
2022-09-21T03:56:10.860Z,44536.06
2022-09-21T03:57:12.963Z,44536.75
2022-09-21T03:58:15.091Z,44861.59
2022-09-21T03:59:17.544Z,42912.91
2022-09-21T04:00:20.300Z,43236.28
2022-09-21T04:01:22.499Z,43883.06
2022-09-21T04:02:24.685Z,42256.53
2022-09-21T04:03:26.822Z,40632.53
2022-09-21T04:04:28.946Z,39009.03
2022-09-21T04:05:31.092Z,40308.00
2022-09-21T04:06:33.931Z,42260.16
2022-09-21T04:07:36.786Z,44540.97
2022-09-21T04:08:39.774Z,45188.91
2022-09-21T04:09:41.951Z,46161.41
2022-09-21T04:10:44.113Z,47786.88
2022-09-21T04:11:48.169Z,47462.63
2022-09-21T04:12:50.271Z,48434.97
2022-09-21T04:13:56.865Z,46481.56
2022-09-21T04:14:59.130Z,43873.09
2022-09-21T04:16:01.484Z,43874.81
2022-09-21T04:17:04.037Z,43224.81
2022-09-21T04:18:06.221Z,43550.13
2022-09-21T04:19:08.446Z,43877.22
2022-09-21T04:20:10.694Z,43551.84
2022-09-21T04:21:12.794Z,43876.88
2022-09-21T04:22:15.460Z,45830.78
2022-09-21T04:23:17.600Z,46803.16
2022-09-21T04:24:19.757Z,47454.06
2022-09-21T04:25:21.938Z,47126.19
2022-09-21T04:26:30.061Z,43239.66
2022-09-21T04:27:32.926Z,47455.19
2022-09-21T04:28:35.043Z,46793.97
2022-09-21T04:29:37.744Z,45817.13
2022-09-21T04:30:40.289Z,46139.34
2022-09-21T04:31:43.754Z,42574.88
2022-09-21T04:32:46.518Z,42896.16
2022-09-21T04:33:50.556Z,42252.91
2022-09-21T04:34:52.666Z,42241.03
2022-09-21T04:35:56.028Z,39977.25
2022-09-21T04:36:59.072Z,39975.69
2022-09-21T04:38:01.174Z,40293.91
2022-09-21T04:39:04.915Z,40305.50
2022-09-21T04:40:08.084Z,40955.19
2022-09-21T04:41:10.820Z,39650.31
2022-09-21T04:42:13.186Z,38999.06
2022-09-21T04:43:17.671Z,38024.81
2022-09-21T04:44:22.889Z,37379.38
2022-09-21T04:45:25.007Z,36730.50
2022-09-21T04:46:27.204Z,37704.59
2022-09-21T04:47:30.891Z,39010.88
2022-09-21T04:48:33.014Z,41925.34
2022-09-21T04:49:35.154Z,43873.78
2022-09-21T04:50:38.057Z,44858.78
2022-09-21T04:51:43.707Z,44846.16
2022-09-21T04:52:45.829Z,41919.16
2022-09-21T04:53:47.992Z,39641.69
2022-09-21T04:54:51.037Z,39644.16
2022-09-21T04:55:53.290Z,41268.84
2022-09-21T04:56:55.474Z,41270.13
2022-09-21T04:57:57.771Z,39647.53
2022-09-21T04:58:59.922Z,40297.34
2022-09-21T05:00:05.558Z,38361.63
2022-09-21T05:01:07.831Z,38025.97
2022-09-21T05:02:10.088Z,36403.41
2022-09-21T05:03:12.247Z,35429.38
2022-09-21T05:04:14.528Z,33158.25
2022-09-21T05:05:16.826Z,33483.81
2022-09-21T05:06:18.925Z,35755.78
2022-09-21T05:07:21.005Z,38030.69
2022-09-21T05:08:43.660Z,38692.09
2022-09-21T05:10:03.705Z,38031.88
2022-09-21T05:11:07.213Z,36740.72
2022-09-21T05:12:09.835Z,37059.38
2022-09-21T05:13:11.912Z,36410.72
2022-09-21T05:14:14.091Z,37386.03
2022-09-21T05:15:16.259Z,38685.50
2022-09-21T05:16:19.234Z,38038.66
2022-09-21T05:17:22.867Z,38039.53
2022-09-21T05:18:25.138Z,37386.63
2022-09-21T05:19:27.254Z,37386.03
2022-09-21T05:20:29.447Z,38361.63
2022-09-21T05:21:31.723Z,39986.56
2022-09-21T05:22:33.900Z,41284.59
2022-09-21T05:23:36.076Z,41286.19
2022-09-21T05:24:38.186Z,42585.84
2022-09-21T05:25:40.265Z,44209.88
2022-09-21T05:26:42.358Z,39006.03
2022-09-21T05:27:44.514Z,36732.75
2022-09-21T05:28:47.070Z,34464.34
2022-09-21T05:29:49.760Z,35115.22
2022-09-21T05:31:17.100Z,31558.47
2022-09-21T05:32:48.961Z,30267.41
2022-09-21T05:33:58.631Z,32537.09
2022-09-21T05:35:19.435Z,32542.56
2022-09-21T05:36:53.331Z,33522.16
2022-09-21T05:37:59.111Z,36755.78
2022-09-21T05:39:01.473Z,37404.28
2022-09-21T05:40:05.575Z,34814.28
2022-09-21T05:41:08.393Z,34812.94
2022-09-21T05:42:10.952Z,36433.22
2022-09-21T05:43:13.662Z,35785.88
2022-09-21T05:44:16.042Z,35130.91
2022-09-21T05:45:21.091Z,33842.22
2022-09-21T05:46:41.011Z,31254.59
2022-09-21T05:48:16.121Z,30288.16
2022-09-21T05:49:29.827Z,30935.84
2022-09-21T05:50:57.296Z,29319.38
2022-09-21T05:52:37.301Z,32238.94
2022-09-21T05:53:58.657Z,32890.13
2022-09-21T05:55:34.465Z,31272.94
2022-09-21T05:56:43.716Z,31270.78
2022-09-21T05:58:17.701Z,30951.41
2022-09-21T05:59:36.814Z,29654.63
2022-09-21T06:00:52.690Z,31925.13
2022-09-21T06:02:16.293Z,30629.38
2022-09-21T06:03:29.184Z,30957.31
2022-09-21T06:04:31.611Z,32245.59
2022-09-21T06:05:33.774Z,29972.38
2022-09-21T06:06:35.874Z,28675.78
2022-09-21T06:07:38.176Z,28350.47
2022-09-21T06:08:40.320Z,26404.91
2022-09-21T06:09:43.369Z,26408.31
2022-09-21T06:10:45.993Z,26414.06
2022-09-21T06:11:48.567Z,27712.50
2022-09-21T06:12:50.852Z,27066.31
2022-09-21T06:13:52.987Z,26744.16
2022-09-21T06:14:56.359Z,26423.19
2022-09-21T06:16:03.159Z,24485.41
2022-09-21T06:17:05.352Z,28045.94
2022-09-21T06:18:08.327Z,23507.41
2022-09-21T06:19:13.781Z,21891.59
2022-09-21T06:20:15.965Z,23835.47
2022-09-21T06:21:18.143Z,22213.88
2022-09-21T06:22:20.334Z,21567.84
2022-09-21T06:23:22.470Z,24819.69
2022-09-21T06:24:25.259Z,22875.31
2022-09-21T06:25:27.634Z,22230.44
2022-09-21T06:26:29.840Z,25486.84
2022-09-21T06:27:31.939Z,21918.22
2022-09-21T06:28:34.149Z,22901.06
2022-09-21T06:29:36.403Z,17055.44
2022-09-21T06:30:40.971Z,14788.28
2022-09-21T06:31:43.122Z,19998.00
2022-09-21T06:32:45.267Z,7320.09
2022-09-21T06:33:48.239Z,11224.97
2022-09-21T06:34:50.534Z,15462.03
2022-09-21T06:36:00.242Z,32782.41
2022-09-21T06:37:03.146Z,23629.69
2022-09-21T06:38:07.143Z,22007.34
2022-09-21T06:39:09.241Z,34767.75
2022-09-21T06:40:11.721Z,54809.09
2022-09-21T06:41:18.591Z,33475.44
2022-09-21T06:42:23.121Z,33158.97
2022-09-21T06:43:25.214Z,86911.59
2022-09-21T06:44:27.329Z,69371.16
2022-09-21T06:45:31.087Z,43358.16
2022-09-21T06:46:33.192Z,34825.38
2022-09-21T06:47:35.287Z,69452.88
2022-09-21T06:48:37.485Z,66831.84
2022-09-21T06:49:42.550Z,96761.41
2022-09-21T06:50:44.866Z,93812.03
2022-09-21T06:51:48.477Z,65946.59
2022-09-21T06:52:50.587Z,44144.72
2022-09-21T06:53:57.173Z,90333.25
2022-09-21T06:54:59.546Z,51133.09
2022-09-21T06:56:07.625Z,102828.31
2022-09-21T06:57:09.718Z,103515.16
2022-09-21T06:58:11.841Z,146316.06
2022-09-21T06:59:14.054Z,149464.75
2022-09-21T07:00:16.361Z,149436.78
2022-09-21T07:01:19.741Z,149613.19
2022-09-21T07:02:22.198Z,149566.97
2022-09-21T07:03:25.137Z,149659.41
2022-09-21T07:04:29.376Z,149768.97
2022-09-21T07:05:33.156Z,149907.81
2022-09-21T07:06:35.462Z,149683.78
2022-09-21T07:07:37.750Z,149868.84
2022-09-21T07:10:06.143Z,149971.13
2022-09-21T07:11:09.014Z,150088.13
2022-09-21T07:12:11.230Z,150158.78
2022-09-21T07:13:13.358Z,150273.38
2022-09-21T07:14:15.621Z,150180.69
2022-09-21T07:15:19.327Z,150090.56
2022-09-21T07:16:21.943Z,150213.66
2022-09-21T07:17:24.340Z,150244.13
2022-09-21T07:18:26.515Z,150253.91
2022-09-21T07:19:28.744Z,150402.63
2022-09-21T07:20:31.636Z,150485.56
2022-09-21T07:21:33.779Z,150492.84
2022-09-21T07:22:36.811Z,150525.78
2022-09-21T07:23:39.303Z,150629.50
2022-09-21T07:24:41.449Z,150689.28
2022-09-21T07:25:45.148Z,150795.44
2022-09-21T07:26:47.275Z,150839.38
2022-09-21T07:27:49.422Z,150944.41
2022-09-21T07:28:51.529Z,150802.75
2022-09-21T07:29:53.854Z,150950.50
2022-09-21T07:30:56.794Z,151033.50
2022-09-21T07:31:58.947Z,151027.41
2022-09-21T07:33:01.145Z,151055.50
2022-09-21T07:34:03.484Z,151214.28
2022-09-21T07:35:06.138Z,151340.16
2022-09-21T07:36:11.387Z,151215.50
2022-09-21T07:37:15.051Z,151395.09
2022-09-21T07:38:17.158Z,151484.38
2022-09-21T07:39:19.348Z,151446.50
2022-09-21T07:40:25.001Z,151577.31
2022-09-21T07:41:27.503Z,151373.16
2022-09-21T07:42:30.205Z,151384.13
2022-09-21T07:43:33.604Z,151478.28
2022-09-21T07:44:35.708Z,151585.84
2022-09-21T07:45:38.290Z,151574.88
2022-09-21T07:46:45.767Z,151337.72
2022-09-21T07:47:50.020Z,151247.28
2022-09-21T07:48:54.677Z,151345.03
2022-09-21T07:49:56.881Z,151242.38
2022-09-21T07:51:06.498Z,151303.47
2022-09-21T07:52:11.277Z,151291.28
2022-09-21T07:53:16.237Z,150984.69
2022-09-21T07:54:18.341Z,151028.63
2022-09-21T07:55:20.503Z,151015.22
2022-09-21T07:56:23.049Z,151110.50
2022-09-21T07:57:43.520Z,151162.97
2022-09-21T07:59:04.298Z,151310.84
2022-09-21T08:00:06.825Z,151391.44
2022-09-21T08:01:13.707Z,151171.50
2022-09-21T08:02:16.045Z,151434.25
2022-09-21T08:03:18.354Z,151500.22
2022-09-21T08:04:20.494Z,151719.09
2022-09-21T08:05:22.588Z,151809.66
2022-09-21T08:06:27.505Z,151932.03
2022-09-21T08:07:29.593Z,151930.78
2022-09-21T08:08:31.737Z,151957.66
2022-09-21T08:09:34.750Z,151928.31
2022-09-21T08:10:37.203Z,151863.44
2022-09-21T08:11:43.319Z,151807.22
2022-09-21T08:12:45.752Z,151851.22
2022-09-21T08:13:48.897Z,151936.91
2022-09-21T08:14:51.048Z,151799.88
2022-09-21T08:16:00.817Z,152149.81
2022-09-21T08:17:03.202Z,151716.66
2022-09-21T08:18:07.143Z,151885.50
2022-09-21T08:19:09.281Z,151675.09
2022-09-21T08:20:11.445Z,151985.81
2022-09-21T08:21:14.058Z,151733.84
2022-09-21T08:22:16.177Z,151934.47
2022-09-21T08:23:18.637Z,152013.97
2022-09-21T08:24:21.002Z,151892.84
2022-09-21T08:25:23.800Z,152064.19
2022-09-21T08:26:26.271Z,152142.47
2022-09-21T08:27:28.933Z,152280.81
2022-09-21T08:28:31.319Z,152430.25
2022-09-21T08:29:33.590Z,152561.31
2022-09-21T08:30:35.733Z,152306.59
2022-09-21T08:31:37.909Z,152075.19
2022-09-21T08:32:51.089Z,152231.88
2022-09-21T08:33:55.212Z,152482.91
2022-09-21T08:34:57.369Z,152436.38
2022-09-21T08:36:01.057Z,152524.59
2022-09-21T08:37:03.415Z,152448.63
2022-09-21T08:38:06.345Z,152506.19
2022-09-21T08:39:09.274Z,152615.22
2022-09-21T08:40:12.404Z,152703.44
2022-09-21T08:41:21.927Z,152938.81
2022-09-21T08:42:42.125Z,152629.97
2022-09-21T08:43:50.050Z,152650.75
2022-09-21T08:44:57.067Z,152843.22
2022-09-21T08:46:00.483Z,152607.91
2022-09-21T08:47:19.869Z,152655.69
2022-09-21T08:48:35.833Z,152541.72
2022-09-21T08:49:42.907Z,152580.94
2022-09-21T08:50:53.089Z,152362.91
2022-09-21T08:52:03.431Z,152159.63
2022-09-21T08:53:15.035Z,151968.72
2022-09-21T08:54:22.682Z,152360.47
2022-09-21T08:55:24.897Z,152084.97
2022-09-21T08:56:47.181Z,152327.41
2022-09-21T08:57:49.897Z,152468.25
2022-09-21T08:58:52.052Z,152576.06
2022-09-21T08:59:54.214Z,152644.63
2022-09-21T09:01:14.843Z,152806.41
2022-09-21T09:02:35.719Z,152903.25
2022-09-21T09:04:11.572Z,152987.91
2022-09-21T09:05:38.431Z,153046.69
2022-09-21T09:06:52.417Z,152927.78
2022-09-21T09:08:18.849Z,152791.72
2022-09-21T09:09:33.571Z,152691.22
2022-09-21T09:11:06.248Z,152649.53
2022-09-21T09:12:25.595Z,152948.59
2022-09-21T09:13:42.560Z,152889.81
2022-09-21T09:15:02.755Z,152649.53
2022-09-21T09:16:10.896Z,152840.75
2022-09-21T09:17:34.639Z,153108.03
2022-09-21T09:18:52.872Z,153293.25
2022-09-21T09:20:06.724Z,153371.78
2022-09-21T09:21:29.937Z,153374.25
2022-09-21T09:23:04.621Z,153317.81
2022-09-21T09:24:10.372Z,153166.91
2022-09-21T09:25:20.719Z,153189.00
2022-09-21T09:26:34.998Z,153468.75
2022-09-21T09:27:41.794Z,153380.38
2022-09-21T09:28:53.188Z,153208.59
2022-09-21T09:30:14.098Z,152742.69
2022-09-21T09:31:24.664Z,152796.63
2022-09-21T09:32:51.428Z,152838.31
2022-09-21T09:34:10.164Z,153157.13
2022-09-21T09:35:33.210Z,153483.50
2022-09-21T09:36:57.405Z,153483.50
2022-09-21T09:38:26.006Z,153597.63
2022-09-21T09:39:30.714Z,153779.28
2022-09-21T09:40:42.124Z,153865.25
2022-09-21T09:41:53.060Z,153973.34
2022-09-21T09:43:09.205Z,153022.22
2022-09-21T09:44:50.550Z,152937.56
2022-09-21T09:46:06.179Z,152424.09
2022-09-21T09:47:27.470Z,152830.91
2022-09-21T09:48:39.938Z,152952.25
2022-09-21T09:49:57.289Z,153235.63
2022-09-21T09:50:59.505Z,153255.25
2022-09-21T09:52:02.385Z,153559.53
2022-09-21T09:53:13.149Z,153855.44
2022-09-21T09:54:17.452Z,153888.59
2022-09-21T09:55:25.975Z,154016.34
2022-09-21T09:56:28.542Z,153862.81
2022-09-21T09:57:33.096Z,153943.84
2022-09-21T09:58:59.627Z,153677.34
2022-09-21T10:00:12.293Z,153164.47
2022-09-21T10:01:41.989Z,153267.50
2022-09-21T10:02:51.283Z,153152.22
2022-09-21T10:04:08.781Z,153099.47
2022-09-21T10:05:24.274Z,153162.00
2022-09-21T10:06:33.237Z,153455.22
2022-09-21T10:07:38.902Z,153155.88
2022-09-21T10:08:44.723Z,153024.66
2022-09-21T10:09:46.942Z,153120.34
2022-09-21T10:10:49.627Z,153334.94
2022-09-21T10:11:54.031Z,153336.19
2022-09-21T10:13:04.045Z,153488.38
2022-09-21T10:14:20.058Z,153321.47
2022-09-21T10:15:24.943Z,153638.09
2022-09-21T10:16:27.589Z,153767.00
2022-09-21T10:17:29.929Z,153957.41
2022-09-21T10:18:52.219Z,153843.16
2022-09-21T10:20:02.229Z,153670.00
2022-09-21T10:21:09.041Z,153090.84
2022-09-21T10:22:18.239Z,153390.22
2022-09-21T10:23:20.584Z,153191.44
2022-09-21T10:24:30.582Z,153550.97
2022-09-21T10:25:34.811Z,153341.13
2022-09-21T10:26:49.862Z,153171.81
2022-09-21T10:27:52.726Z,153063.88
2022-09-21T10:29:22.822Z,153076.13
2022-09-21T10:30:31.010Z,152973.16
2022-09-21T10:31:33.178Z,152845.66
2022-09-21T10:32:36.754Z,153071.22
2022-09-21T10:34:06.540Z,153209.81
2022-09-21T10:35:10.289Z,153422.09
2022-09-21T10:36:51.096Z,153493.28
2022-09-21T10:38:09.965Z,153635.66
2022-09-21T10:39:11.947Z,153846.88
2022-09-21T10:40:20.302Z,153751.06
2022-09-21T10:41:23.184Z,153762.13
2022-09-21T10:42:25.697Z,153342.34
2022-09-21T10:43:45.287Z,153741.22
2022-09-21T10:44:50.693Z,153911.94
2022-09-21T10:45:55.758Z,153959.84
2022-09-21T10:47:02.429Z,154092.50
2022-09-21T10:48:11.086Z,154200.63
2022-09-21T10:49:28.412Z,154343.19
2022-09-21T10:50:40.008Z,154409.56
2022-09-21T10:51:45.990Z,154630.81
2022-09-21T10:52:49.619Z,154461.16
2022-09-21T10:53:54.510Z,154434.13
2022-09-21T10:54:57.371Z,154505.41
2022-09-21T10:56:15.423Z,154461.16
2022-09-21T10:57:22.592Z,153775.59
2022-09-21T10:58:25.557Z,154012.66
2022-09-21T10:59:32.882Z,154156.41
2022-09-21T11:00:42.562Z,154114.63
2022-09-21T11:01:50.747Z,154117.06
2022-09-21T11:02:54.966Z,154185.91
2022-09-21T11:04:08.694Z,154387.44
2022-09-21T11:05:22.758Z,154514.06
2022-09-21T11:06:41.552Z,154459.94
2022-09-21T11:07:49.793Z,154249.78
2022-09-21T11:09:10.949Z,153942.63
2022-09-21T11:10:40.567Z,153701.97
2022-09-21T11:11:53.172Z,153784.22
2022-09-21T11:13:17.952Z,153921.75
2022-09-21T11:14:27.779Z,153700.75
2022-09-21T11:15:47.082Z,153886.16
2022-09-21T11:17:07.632Z,153937.72
2022-09-21T11:18:26.318Z,154075.28
2022-09-21T11:19:36.213Z,153537.44
2022-09-21T11:21:34.338Z,153087.19
2022-09-21T11:23:00.581Z,153105.59
2022-09-21T11:24:20.655Z,153283.47
2022-09-21T11:25:32.584Z,153330.06
2022-09-21T11:27:58.701Z,153204.91
2022-09-21T11:29:09.011Z,152830.91
2022-09-21T11:30:15.575Z,152740.25
2022-09-21T11:31:37.386Z,152747.59
2022-09-21T11:33:15.894Z,152801.50
2022-09-21T11:34:35.177Z,152587.06
2022-09-21T11:36:08.158Z,152792.94
2022-09-21T11:37:52.532Z,153027.09
2022-09-21T11:39:06.927Z,153331.28
2022-09-21T11:40:30.646Z,153355.88
2022-09-21T11:42:00.631Z,153500.66
2022-09-21T11:43:15.178Z,153482.25
2022-09-21T11:44:33.673Z,153787.91
2022-09-21T11:45:48.421Z,153608.66
2022-09-21T11:47:10.636Z,153652.84
2022-09-21T11:48:47.477Z,153645.44
2022-09-21T11:50:29.172Z,153692.13
2022-09-21T11:51:47.996Z,153622.16
2022-09-21T11:53:14.378Z,153260.16
2022-09-21T11:54:26.072Z,153333.72
2022-09-21T11:55:57.274Z,153267.50
2022-09-21T11:57:19.159Z,153660.22
2022-09-21T11:58:39.724Z,153728.97
2022-09-21T11:59:42.501Z,153346.03
2022-09-21T12:01:01.558Z,153287.16
2022-09-21T12:02:35.681Z,152959.66
2022-09-21T12:03:50.686Z,152894.69
2022-09-21T12:05:01.112Z,152828.47
2022-09-21T12:06:29.000Z,152681.38
2022-09-21T12:08:02.120Z,152661.81
2022-09-21T12:09:17.858Z,152898.38
2022-09-21T12:10:39.098Z,152873.84
2022-09-21T12:11:48.944Z,153079.78
2022-09-21T12:13:08.776Z,153222.16
2022-09-21T12:14:28.966Z,153409.81
2022-09-21T12:15:44.296Z,153555.88
2022-09-21T12:17:11.313Z,153701.97
2022-09-21T12:18:29.956Z,153891.06
2022-09-21T12:19:56.788Z,154048.31
2022-09-21T12:21:19.048Z,154050.75
2022-09-21T12:22:28.659Z,153463.84
2022-09-21T12:23:36.538Z,153573.03
2022-09-21T12:24:50.760Z,153220.94
2022-09-21T12:25:57.309Z,153314.09
2022-09-21T12:27:09.705Z,153068.78
2022-09-21T12:28:15.352Z,152791.72
2022-09-21T12:29:27.524Z,152606.69
2022-09-21T12:30:32.626Z,152384.91
2022-09-21T12:31:47.944Z,152522.09
2022-09-21T12:33:09.524Z,152451.09
2022-09-21T12:34:18.794Z,152419.19
2022-09-21T12:35:34.791Z,152357.97
2022-09-21T12:36:52.042Z,152419.19
2022-09-21T12:38:07.022Z,152402.09
2022-09-21T12:39:29.119Z,152321.25
2022-09-21T12:40:39.344Z,152361.69
2022-09-21T12:41:41.551Z,152446.19
2022-09-21T12:42:56.887Z,152528.25
2022-09-21T12:44:06.383Z,152519.66
2022-09-21T12:45:30.234Z,152845.66
2022-09-21T12:46:40.619Z,153175.47
2022-09-21T12:47:53.276Z,153234.41
2022-09-21T12:48:56.355Z,153165.69
2022-09-21T12:50:16.067Z,153115.41
2022-09-21T12:51:29.593Z,153038.13
2022-09-21T12:52:33.107Z,153184.03
2022-09-21T12:53:38.813Z,152992.78
2022-09-21T12:55:06.679Z,152919.16
2022-09-21T12:56:30.720Z,152750.03
2022-09-21T12:58:13.972Z,153191.44
2022-09-21T12:59:35.152Z,153218.47
2022-09-21T13:00:57.230Z,153149.72
2022-09-21T13:02:17.419Z,153177.94
2022-09-21T13:03:30.858Z,153366.88
2022-09-21T13:04:53.330Z,153506.78
2022-09-21T13:06:23.198Z,153548.53
2022-09-21T13:08:04.536Z,153017.28
2022-09-21T13:09:12.709Z,153009.94
2022-09-21T13:10:39.487Z,152913.06
2022-09-21T13:12:15.696Z,153009.94
2022-09-21T13:13:29.660Z,153095.81
2022-09-21T13:14:36.201Z,152938.81
2022-09-21T13:15:44.966Z,152867.72
2022-09-21T13:16:57.579Z,152821.13
2022-09-21T13:18:05.662Z,152991.56
2022-09-21T13:19:13.789Z,153009.94
2022-09-21T13:20:19.433Z,152841.97
2022-09-21T13:21:29.770Z,152801.50